METAR Data
IDs: Format: Raw Decoded Include TAF

Data at: 0006 UTC 25 Apr 2019

PAKK 242356Z AUTO 19004KT 10SM CLR M02/M06 A3016 RMK AO2 SLP226 T10171056 10017 21022 53008 FZRANO
PAKK 242256Z AUTO 24004KT 10SM CLR M01/M05 A3015 RMK AO2 SLP224 T10111050 FZRANO
PAKK 242056Z AUTO 16003KT 10SM CLR 00/M06 A3013 RMK AO2 SLP218 T00001056 51013 FZRANO
PAKK 241956Z AUTO VRB03KT 10SM CLR M01/M05 A3012 RMK AO2 SLP214 T10061050 FZRANO
PAKK 241856Z AUTO 09003KT 10SM CLR M01/M06 A3011 RMK AO2 SLP209 T10061056 FZRANO
PAKK 241756Z AUTO 09003KT 10SM CLR M01/M05 A3009 RMK AO2 SLP204 60000 T10111050 11011 21067 51015 FZRANO
PAKK 241656Z AUTO 08003KT 10SM FEW075 M02/M04 A3008 RMK AO2 SLP201 T10221044 FZRANO
PAKK 241556Z AUTO 00000KT 10SM SCT080 M05/M06 A3007 RMK AO2 SNE16 SLP195 P0000 T10501061 FZRANO
PAKK 241456Z AUTO 00000KT 9SM -SN BKN038 BKN048 OVC055 M06/M07 A3005 RMK AO2 SNE01B51 SLP189 P0000 60000 T10611072 51011 FZRANO
PAKK 241356Z AUTO 00000KT 9SM -SN OVC080 M06/M07 A3004 RMK AO2 SLP185 P0000 T10611067 FZRANO
PAKK 241334Z AUTO 00000KT 9SM SCT018 OVC080 M06/M07 A3003 RMK AO2 SNE31 P0000 FZRANO
PAKK 241256Z AUTO 08003KT 9SM -SN OVC018 M06/M07 A3003 RMK AO2 SLP183 P0000 T10611067 FZRANO
PAKK 241156Z AUTO 00000KT 9SM -SN OVC015 M05/M06 A3002 RMK AO2 SLP178 P0000 60000 70001 T10501061 11028 21050 51019 FZRANO
PAKK 241056Z AUTO 00000KT 6SM -SN BR BKN015 BKN032 OVC043 M05/M06 A3000 RMK AO2 SLP173 P0000 T10501061 FZRANO
PAKK 241035Z AUTO 00000KT 7SM -SN SCT017 BKN039 OVC048 M04/M06 A2999 RMK AO2 P0000 FZRANO
PAKK 240956Z AUTO 20003KT 9SM -SN OVC017 M04/M05 A2998 RMK AO2 SLP167 P0000 T10391050 FZRANO
PAKK 240856Z AUTO 23003KT 9SM -SN BKN017 OVC050 M04/M06 A2996 RMK AO2 SLP159 P0000 60000 T10441056 400111044 52021 FZRANO
PAKK 240829Z AUTO 00000KT 5SM -SN BR OVC015 M04/M05 A2995 RMK AO2 P0000 FZRANO
PAKK 240756Z AUTO 21004KT 5SM -SN BR BKN011 OVC035 M04/M05 A2994 RMK AO2 SLP153 P0000 T10391050 FZRANO
PAKK 240706Z AUTO 21005KT 9SM -SN BKN011 OVC033 M03/M04 A2992 RMK AO2 P0000 FZRANO
PAKK 240656Z AUTO 20004KT 9SM -SN SCT011 OVC033 M03/M04 A2992 RMK AO2 SLP145 P0000 T10331044 FZRANO
PAKK 240612Z AUTO 20005KT 6SM -SN BR SCT026 OVC033 M03/M04 A2990 RMK AO2 P0000 FZRANO
PAKK 240556Z AUTO 21005KT 5SM -SN BR FEW011 BKN026 OVC033 M03/M04 A2990 RMK AO2 SLP138 P0000 60000 T10281044 11011 21028 53018 FZRANO
PAKK 240524Z AUTO 20007KT 4SM -SN BR FEW011 OVC026 M03/M04 A2989 RMK AO2 P0000 FZRANO
PAKK 240456Z AUTO 20005KT 5SM -SN BR BKN011 BKN014 OVC024 M02/M04 A2988 RMK AO2 SLP132 P0000 T10221044 FZRANO
PAKK 240431Z AUTO 21007KT 9SM -SN SCT011 OVC024 M02/M04 A2987 RMK AO2 P0000 FZRANO
PAKK 240256Z AUTO 21008KT 4SM -SN BR BKN013 OVC020 M02/M04 A2985 RMK AO2 SLP120 P0000 60000 T10171039 53025 FZRANO
PAKK 240218Z AUTO 20010G16KT 5SM -SN BR SCT005 BKN011 OVC016 M02/M04 A2983 RMK AO2 P0000 FZRANO
PAKK 240210Z AUTO 20011G15KT 4SM -SN BR BKN005 OVC009 M02/M03 A2982 RMK AO2 P0000 FZRANO
PAKK 240156Z AUTO 19010G15KT 2SM -SN BR OVC005 M02/M03 A2982 RMK AO2 SLP111 P0000 T10171033 FZRANO
PAKK 240141Z AUTO 19011KT 2SM -SN BR OVC005 M02/M03 A2981 RMK AO2 P0000 FZRANO
PAKK 240056Z AUTO 18013KT 9SM -SN BKN005 OVC013 M01/M03 A2979 RMK AO2 SLP102 P0000 T10111033 FZRANO
PAKK 240005Z AUTO 18010G16KT 9SM -SN BKN005 OVC010 M01/M03 A2978 RMK AO2 P0000 FZRANO
PAKK 232356Z AUTO 19010KT 9SM -SN OVC007 M01/M03 A2977 RMK AO2 CIG 004V011 SLP095 P0000 60000 T10111028 10011 21017 51014 FZRANO
PAKK 232354Z AUTO 18010KT 9SM -SN OVC007 M01/M03 A2977 RMK AO2 CIG 004V011 P0000 FZRANO
PAKK 232256Z AUTO 16009KT 7SM -SN OVC004 M01/M02 A2975 RMK AO2 UPB25E50SNE25B50 SLP087 P0000 T10111022 FZRANO
PAKK 232234Z AUTO 15009KT 10SM UP OVC004 M01/M03 A2974 RMK AO2 UPB25SNE25 P0000 FZRANO
PAKK 232156Z AUTO 15007KT 5SM -SN BR OVC006 M01/M03 A2973 RMK AO2 RAB03E08UPB39E45SNB08E39B45 CIG 004V009 SLP082 P0000 T10061028 FZRANO
PAKK 232142Z AUTO 15008KT 9SM UP OVC006 M01/M03 A2973 RMK AO2 RAB03E08UPB39SNB08E39 CIG 004V009 P0000 FZRANO
PAKK 232126Z AUTO 16007KT 3SM -SN BR BKN004 OVC013 M01/M03 A2972 RMK AO2 RAB03E08SNB08 CIG 004V008 P0000 FZRANO
PAKK 232118Z AUTO 17007KT 1 3/4SM -SN BR BKN004 OVC013 M01/M03 A2972 RMK AO2 VIS 1V3 RAB03E08SNB08 CIG 004V008 P0000 FZRANO
PAKK 232111Z AUTO 12007KT 2 1/2SM -SN BR FEW006 OVC013 00/M02 A2971 RMK AO2 VIS 1 1/2V5 RAB03E08SNB08 P0000 FZRANO
PAKK 232056Z AUTO 10007KT 10SM OVC013 01/M03 A2971 RMK AO2 UPB38E47SNE38 SLP073 P0000 60000 T00061033 53027 FZRANO
PAKK 232008Z AUTO 01007KT 6SM -SN OVC013 01/M03 A2968 RMK AO2 P0000 FZRANO
PAKK 231956Z AUTO 01007KT 5SM -SN OVC017 01/M03 A2968 RMK AO2 SLP063 P0000 T00061033 FZRANO
PAKK 231937Z AUTO 35008KT 4SM -SN OVC019 00/M03 A2967 RMK AO2 P0000 FZRANO
PAKK 231924Z AUTO 36009G14KT 2 1/2SM -SN BKN019 OVC025 00/M03 A2966 RMK AO2 VIS 2V4 P0000 FZRANO
PAKK 231856Z AUTO 01010G16KT 1 1/2SM -SN BR OVC023 M01/M03 A2964 RMK AO2 SLP052 P0000 T10111033 FZRANO
PAKK 231822Z AUTO 02010G15KT 1 3/4SM -SN BR OVC018 M02/M03 A2964 RMK AO2 P0000 FZRANO
PAKK 231810Z AUTO 01009KT 2 1/2SM -SN BR BKN018 OVC023 M01/M03 A2963 RMK AO2 VIS 1 3/4V3 P0000 FZRANO
PAKK 231756Z AUTO 36007G17KT 4SM -SN BR BKN018 OVC024 M01/M03 A2962 RMK AO2 SLP045 P0000 60001 T10111033 11011 21022 53019 FZRANO
PAKK 231747Z AUTO 35010G16KT 4SM -SN BR BKN018 OVC030 M01/M03 A2962 RMK AO2 P0000 FZRANO
PAKK 231656Z AUTO VRB04KT 2 1/2SM -SN BR SCT020 OVC027 M01/M03 A2960 RMK AO2 VIS 1 3/4V3 SLP038 P0000 T10111028 FZRANO
PAKK 231634Z AUTO 35007KT 2SM -SN BR BKN027 OVC036 M02/M03 A2959 RMK AO2 P0000 FZRANO
PAKK 231625Z AUTO 35011G15KT 2 1/2SM -SN BR SCT027 OVC036 M02/M03 A2958 RMK AO2 P0000 FZRANO
PAKK 231556Z AUTO 36011G17KT 2SM -SN BR FEW018 BKN025 OVC031 M02/M03 A2957 RMK AO2 SLP028 P0001 T10171028 FZRANO
PAKK 231549Z AUTO 35012G16KT 1 3/4SM -SN BR FEW020 OVC025 M02/M03 A2957 RMK AO2 P0001 FZRANO
PAKK 231541Z AUTO 35010G18KT 2SM -SN BR SCT020 OVC025 M02/M03 A2957 RMK AO2 P0001 FZRANO
PAKK 231456Z AUTO 35003KT 1 1/4SM -SN BR BKN017 OVC023 M02/M03 A2957 RMK AO2 SLP026 P0000 60000 T10221033 51011 FZRANO
PAKK 231436Z AUTO 36004KT 1 1/2SM -SN BR OVC017 M02/M03 A2956 RMK AO2 P0000 FZRANO
PAKK 231417Z AUTO 33003KT 2 1/2SM -SN BR OVC017 M02/M03 A2956 RMK AO2 P0000 FZRANO
PAKK 231356Z AUTO 00000KT 3SM -SN BR OVC019 M02/M03 A2956 RMK AO2 SLP022 P0000 T10171033 FZRANO
PAKK 231256Z AUTO 03004KT 3SM -SN BR OVC023 M02/M03 A2954 RMK AO2 UPE00SNB00 SLP018 P0000 T10171033 FZRANO